sensor_id;sensor_type;location;lat;lon;timestamp;P1;durP1;ratioP1;P2;durP2;ratioP2
49241;SDS011;35079;52.704;13.814;2022-09-21T00:00:52;7.72;;;1.00;;
49241;SDS011;35079;52.704;13.814;2022-09-21T00:03:20;0.73;;;0.60;;
49241;SDS011;35079;52.704;13.814;2022-09-21T00:05:46;0.93;;;0.70;;
49241;SDS011;35079;52.704;13.814;2022-09-21T00:08:12;0.80;;;0.80;;
49241;SDS011;35079;52.704;13.814;2022-09-21T00:10:38;0.70;;;0.70;;
49241;SDS011;35079;52.704;13.814;2022-09-21T00:13:04;2.70;;;0.80;;
49241;SDS011;35079;52.704;13.814;2022-09-21T00:15:31;1.00;;;1.00;;
49241;SDS011;35079;52.704;13.814;2022-09-21T00:17:57;0.90;;;0.90;;
49241;SDS011;35079;52.704;13.814;2022-09-21T00:20:24;3.03;;;1.08;;
49241;SDS011;35079;52.704;13.814;2022-09-21T00:22:51;0.75;;;0.70;;
49241;SDS011;35079;52.704;13.814;2022-09-21T00:25:18;2.75;;;1.00;;
49241;SDS011;35079;52.704;13.814;2022-09-21T00:27:44;2.83;;;0.98;;
49241;SDS011;35079;52.704;13.814;2022-09-21T00:30:12;2.50;;;1.20;;
49241;SDS011;35079;52.704;13.814;2022-09-21T00:32:39;1.42;;;1.33;;
49241;SDS011;35079;52.704;13.814;2022-09-21T00:35:05;1.40;;;1.30;;
49241;SDS011;35079;52.704;13.814;2022-09-21T00:37:32;3.78;;;1.40;;
49241;SDS011;35079;52.704;13.814;2022-09-21T00:39:58;1.10;;;1.00;;
49241;SDS011;35079;52.704;13.814;2022-09-21T00:42:25;1.83;;;1.70;;
49241;SDS011;35079;52.704;13.814;2022-09-21T00:44:53;1.85;;;1.20;;
49241;SDS011;35079;52.704;13.814;2022-09-21T00:47:24;1.30;;;1.10;;
49241;SDS011;35079;52.704;13.814;2022-09-21T00:50:00;1.88;;;1.58;;
49241;SDS011;35079;52.704;13.814;2022-09-21T00:52:32;3.38;;;1.80;;
49241;SDS011;35079;52.704;13.814;2022-09-21T00:55:05;2.35;;;1.60;;
49241;SDS011;35079;52.704;13.814;2022-09-21T00:57:38;3.08;;;2.30;;
49241;SDS011;35079;52.704;13.814;2022-09-21T01:00:06;5.30;;;2.10;;
49241;SDS011;35079;52.704;13.814;2022-09-21T01:02:34;9.40;;;2.00;;
49241;SDS011;35079;52.704;13.814;2022-09-21T01:05:01;2.72;;;1.83;;
49241;SDS011;35079;52.704;13.814;2022-09-21T01:07:29;4.70;;;1.95;;
49241;SDS011;35079;52.704;13.814;2022-09-21T01:09:58;15.07;;;2.53;;
49241;SDS011;35079;52.704;13.814;2022-09-21T01:29:22;2.78;;;1.90;;
49241;SDS011;35079;52.704;13.814;2022-09-21T01:37:00;3.38;;;1.48;;
49241;SDS011;35079;52.704;13.814;2022-09-21T01:39:32;8.55;;;1.85;;
49241;SDS011;35079;52.704;13.814;2022-09-21T01:41:59;11.63;;;1.52;;
49241;SDS011;35079;52.704;13.814;2022-09-21T01:44:29;2.85;;;1.30;;
49241;SDS011;35079;52.704;13.814;2022-09-21T01:46:59;4.22;;;1.52;;
49241;SDS011;35079;52.704;13.814;2022-09-21T01:49:29;2.65;;;1.70;;
49241;SDS011;35079;52.704;13.814;2022-09-21T01:52:17;5.00;;;1.60;;
49241;SDS011;35079;52.704;13.814;2022-09-21T01:54:50;1.90;;;1.60;;
49241;SDS011;35079;52.704;13.814;2022-09-21T02:00:14;13.73;;;2.03;;
49241;SDS011;35079;52.704;13.814;2022-09-21T02:02:45;3.13;;;1.80;;
49241;SDS011;35079;52.704;13.814;2022-09-21T02:05:13;3.88;;;1.83;;
49241;SDS011;35079;52.704;13.814;2022-09-21T02:07:41;5.57;;;2.28;;
49241;SDS011;35079;52.704;13.814;2022-09-21T02:10:08;16.88;;;2.70;;
49241;SDS011;35079;52.704;13.814;2022-09-21T02:12:39;7.30;;;2.30;;
49241;SDS011;35079;52.704;13.814;2022-09-21T02:15:04;2.85;;;2.05;;
49241;SDS011;35079;52.704;13.814;2022-09-21T02:20:40;2.67;;;1.92;;
49241;SDS011;35079;52.704;13.814;2022-09-21T02:23:19;2.63;;;1.60;;
49241;SDS011;35079;52.704;13.814;2022-09-21T02:26:04;9.13;;;1.95;;
49241;SDS011;35079;52.704;13.814;2022-09-21T02:28:54;7.38;;;2.38;;
49241;SDS011;35079;52.704;13.814;2022-09-21T02:31:36;7.00;;;2.10;;
49241;SDS011;35079;52.704;13.814;2022-09-21T02:34:37;9.65;;;2.00;;
49241;SDS011;35079;52.704;13.814;2022-09-21T02:37:21;9.45;;;1.95;;
49241;SDS011;35079;52.704;13.814;2022-09-21T02:39:56;18.95;;;2.05;;
49241;SDS011;35079;52.704;13.814;2022-09-21T02:42:26;10.82;;;1.98;;
49241;SDS011;35079;52.704;13.814;2022-09-21T02:44:58;4.57;;;1.65;;
49241;SDS011;35079;52.704;13.814;2022-09-21T02:47:29;3.38;;;1.60;;
49241;SDS011;35079;52.704;13.814;2022-09-21T02:50:13;9.63;;;1.65;;
49241;SDS011;35079;52.704;13.814;2022-09-21T02:52:44;3.45;;;1.40;;
49241;SDS011;35079;52.704;13.814;2022-09-21T02:55:10;3.42;;;1.75;;
49241;SDS011;35079;52.704;13.814;2022-09-21T02:57:39;1.70;;;1.60;;
49241;SDS011;35079;52.704;13.814;2022-09-21T03:00:05;1.30;;;1.20;;
49241;SDS011;35079;52.704;13.814;2022-09-21T03:02:38;5.50;;;1.60;;
49241;SDS011;35079;52.704;13.814;2022-09-21T03:05:06;2.47;;;1.60;;
49241;SDS011;35079;52.704;13.814;2022-09-21T03:07:33;2.78;;;1.58;;
49241;SDS011;35079;52.704;13.814;2022-09-21T03:09:58;1.83;;;1.30;;
49241;SDS011;35079;52.704;13.814;2022-09-21T03:12:24;1.63;;;1.52;;
49241;SDS011;35079;52.704;13.814;2022-09-21T03:14:50;1.70;;;1.60;;
49241;SDS011;35079;52.704;13.814;2022-09-21T03:17:17;2.75;;;1.50;;
49241;SDS011;35079;52.704;13.814;2022-09-21T03:19:43;3.05;;;1.60;;
49241;SDS011;35079;52.704;13.814;2022-09-21T03:22:08;5.00;;;1.80;;
49241;SDS011;35079;52.704;13.814;2022-09-21T03:24:34;1.63;;;1.52;;
49241;SDS011;35079;52.704;13.814;2022-09-21T03:27:25;4.30;;;2.00;;
49241;SDS011;35079;52.704;13.814;2022-09-21T03:29:51;1.88;;;1.67;;
49241;SDS011;35079;52.704;13.814;2022-09-21T03:32:17;3.05;;;1.80;;
49241;SDS011;35079;52.704;13.814;2022-09-21T03:34:43;2.47;;;1.90;;
49241;SDS011;35079;52.704;13.814;2022-09-21T03:37:08;3.13;;;1.60;;
49241;SDS011;35079;52.704;13.814;2022-09-21T03:39:34;5.43;;;1.77;;
49241;SDS011;35079;52.704;13.814;2022-09-21T03:42:00;3.17;;;1.80;;
49241;SDS011;35079;52.704;13.814;2022-09-21T03:44:26;4.18;;;1.90;;
49241;SDS011;35079;52.704;13.814;2022-09-21T03:46:53;2.05;;;1.77;;
49241;SDS011;35079;52.704;13.814;2022-09-21T03:49:19;4.95;;;2.33;;
49241;SDS011;35079;52.704;13.814;2022-09-21T03:51:44;3.15;;;2.20;;
49241;SDS011;35079;52.704;13.814;2022-09-21T03:54:10;4.47;;;2.33;;
49241;SDS011;35079;52.704;13.814;2022-09-21T03:56:36;9.00;;;3.08;;
49241;SDS011;35079;52.704;13.814;2022-09-21T03:59:02;29.75;;;4.10;;
49241;SDS011;35079;52.704;13.814;2022-09-21T04:01:28;39.90;;;3.50;;
49241;SDS011;35079;52.704;13.814;2022-09-21T04:03:54;34.40;;;3.05;;
49241;SDS011;35079;52.704;13.814;2022-09-21T04:06:19;32.97;;;3.30;;
49241;SDS011;35079;52.704;13.814;2022-09-21T04:08:45;14.70;;;2.45;;
49241;SDS011;35079;52.704;13.814;2022-09-21T04:11:12;25.33;;;2.97;;
49241;SDS011;35079;52.704;13.814;2022-09-21T04:13:39;35.63;;;2.97;;
49241;SDS011;35079;52.704;13.814;2022-09-21T04:16:06;10.32;;;2.20;;
49241;SDS011;35079;52.704;13.814;2022-09-21T04:18:33;11.55;;;2.40;;
49241;SDS011;35079;52.704;13.814;2022-09-21T04:21:00;14.90;;;2.50;;
49241;SDS011;35079;52.704;13.814;2022-09-21T04:23:25;38.75;;;3.10;;
49241;SDS011;35079;52.704;13.814;2022-09-21T04:25:52;8.25;;;2.40;;
49241;SDS011;35079;52.704;13.814;2022-09-21T04:28:18;7.32;;;2.20;;
49241;SDS011;35079;52.704;13.814;2022-09-21T04:30:44;11.38;;;2.53;;
49241;SDS011;35079;52.704;13.814;2022-09-21T04:33:10;10.05;;;2.40;;
49241;SDS011;35079;52.704;13.814;2022-09-21T04:35:35;4.03;;;2.28;;
49241;SDS011;35079;52.704;13.814;2022-09-21T04:38:01;5.07;;;2.35;;
49241;SDS011;35079;52.704;13.814;2022-09-21T04:40:27;2.30;;;2.13;;
49241;SDS011;35079;52.704;13.814;2022-09-21T04:42:53;2.53;;;2.33;;
49241;SDS011;35079;52.704;13.814;2022-09-21T04:45:20;3.88;;;2.55;;
49241;SDS011;35079;52.704;13.814;2022-09-21T04:47:46;8.15;;;2.92;;
49241;SDS011;35079;52.704;13.814;2022-09-21T04:50:12;11.98;;;3.28;;
49241;SDS011;35079;52.704;13.814;2022-09-21T04:52:37;6.55;;;3.30;;
49241;SDS011;35079;52.704;13.814;2022-09-21T04:55:04;7.88;;;3.67;;
49241;SDS011;35079;52.704;13.814;2022-09-21T04:57:31;34.28;;;6.30;;
49241;SDS011;35079;52.704;13.814;2022-09-21T04:59:57;37.67;;;9.20;;
49241;SDS011;35079;52.704;13.814;2022-09-21T05:02:22;20.92;;;7.70;;
49241;SDS011;35079;52.704;13.814;2022-09-21T05:04:48;9.15;;;5.47;;
49241;SDS011;35079;52.704;13.814;2022-09-21T05:07:14;6.60;;;4.15;;
49241;SDS011;35079;52.704;13.814;2022-09-21T05:09:40;5.70;;;3.50;;
49241;SDS011;35079;52.704;13.814;2022-09-21T05:12:24;3.30;;;3.00;;
49241;SDS011;35079;52.704;13.814;2022-09-21T05:14:50;3.42;;;2.92;;
49241;SDS011;35079;52.704;13.814;2022-09-21T05:17:16;2.80;;;2.60;;
49241;SDS011;35079;52.704;13.814;2022-09-21T05:19:41;2.90;;;2.70;;
49241;SDS011;35079;52.704;13.814;2022-09-21T05:22:07;3.08;;;2.70;;
49241;SDS011;35079;52.704;13.814;2022-09-21T05:24:33;3.47;;;3.17;;
49241;SDS011;35079;52.704;13.814;2022-09-21T05:26:59;4.43;;;2.90;;
49241;SDS011;35079;52.704;13.814;2022-09-21T05:29:25;3.28;;;2.92;;
49241;SDS011;35079;52.704;13.814;2022-09-21T05:31:53;4.93;;;2.60;;
49241;SDS011;35079;52.704;13.814;2022-09-21T05:39:57;3.55;;;3.10;;
49241;SDS011;35079;52.704;13.814;2022-09-21T05:42:23;3.70;;;3.15;;
49241;SDS011;35079;52.704;13.814;2022-09-21T05:44:49;3.78;;;3.13;;
49241;SDS011;35079;52.704;13.814;2022-09-21T05:47:28;3.97;;;3.13;;
49241;SDS011;35079;52.704;13.814;2022-09-21T05:50:27;3.70;;;3.10;;
49241;SDS011;35079;52.704;13.814;2022-09-21T05:56:05;3.10;;;2.80;;
49241;SDS011;35079;52.704;13.814;2022-09-21T05:58:55;3.20;;;2.90;;
49241;SDS011;35079;52.704;13.814;2022-09-21T06:02:09;3.03;;;2.38;;
49241;SDS011;35079;52.704;13.814;2022-09-21T06:04:45;3.38;;;2.85;;
49241;SDS011;35079;52.704;13.814;2022-09-21T06:07:13;4.75;;;3.00;;
49241;SDS011;35079;52.704;13.814;2022-09-21T06:09:39;3.10;;;2.78;;
49241;SDS011;35079;52.704;13.814;2022-09-21T06:12:05;7.13;;;2.90;;
49241;SDS011;35079;52.704;13.814;2022-09-21T06:14:30;3.10;;;2.80;;
49241;SDS011;35079;52.704;13.814;2022-09-21T06:16:56;3.67;;;3.03;;
49241;SDS011;35079;52.704;13.814;2022-09-21T06:19:21;11.68;;;3.38;;
49241;SDS011;35079;52.704;13.814;2022-09-21T06:21:47;2.83;;;2.55;;
49241;SDS011;35079;52.704;13.814;2022-09-21T06:24:13;4.00;;;3.10;;
49241;SDS011;35079;52.704;13.814;2022-09-21T06:26:38;3.63;;;2.92;;
49241;SDS011;35079;52.704;13.814;2022-09-21T06:29:04;3.20;;;2.70;;
49241;SDS011;35079;52.704;13.814;2022-09-21T06:31:30;6.47;;;3.00;;
49241;SDS011;35079;52.704;13.814;2022-09-21T06:33:55;3.15;;;2.88;;
49241;SDS011;35079;52.704;13.814;2022-09-21T06:36:21;3.83;;;2.80;;
49241;SDS011;35079;52.704;13.814;2022-09-21T06:38:47;2.90;;;2.70;;
49241;SDS011;35079;52.704;13.814;2022-09-21T06:41:12;3.30;;;3.00;;
49241;SDS011;35079;52.704;13.814;2022-09-21T06:43:38;7.28;;;3.25;;
49241;SDS011;35079;52.704;13.814;2022-09-21T06:46:04;3.38;;;2.90;;
49241;SDS011;35079;52.704;13.814;2022-09-21T06:48:31;3.92;;;2.60;;
49241;SDS011;35079;52.704;13.814;2022-09-21T06:50:57;3.42;;;3.13;;
49241;SDS011;35079;52.704;13.814;2022-09-21T06:53:24;5.10;;;3.25;;
49241;SDS011;35079;52.704;13.814;2022-09-21T06:55:51;4.35;;;3.00;;
49241;SDS011;35079;52.704;13.814;2022-09-21T06:58:16;5.35;;;3.40;;
49241;SDS011;35079;52.704;13.814;2022-09-21T07:00:43;4.32;;;3.00;;
49241;SDS011;35079;52.704;13.814;2022-09-21T07:03:10;5.03;;;3.38;;
49241;SDS011;35079;52.704;13.814;2022-09-21T07:05:37;4.95;;;3.70;;
49241;SDS011;35079;52.704;13.814;2022-09-21T07:08:03;4.90;;;3.35;;
49241;SDS011;35079;52.704;13.814;2022-09-21T07:10:30;4.95;;;3.33;;
49241;SDS011;35079;52.704;13.814;2022-09-21T07:13:00;3.47;;;3.15;;
49241;SDS011;35079;52.704;13.814;2022-09-21T07:15:30;3.67;;;3.30;;
49241;SDS011;35079;52.704;13.814;2022-09-21T07:17:56;3.78;;;3.17;;
49241;SDS011;35079;52.704;13.814;2022-09-21T07:20:22;3.10;;;2.80;;
49241;SDS011;35079;52.704;13.814;2022-09-21T07:22:48;3.63;;;3.33;;
49241;SDS011;35079;52.704;13.814;2022-09-21T07:25:14;3.83;;;3.47;;
49241;SDS011;35079;52.704;13.814;2022-09-21T07:27:39;5.35;;;3.13;;
49241;SDS011;35079;52.704;13.814;2022-09-21T07:30:06;3.58;;;3.15;;
49241;SDS011;35079;52.704;13.814;2022-09-21T07:32:32;4.18;;;3.10;;
49241;SDS011;35079;52.704;13.814;2022-09-21T07:34:58;4.35;;;3.05;;
49241;SDS011;35079;52.704;13.814;2022-09-21T07:37:24;4.57;;;4.07;;
49241;SDS011;35079;52.704;13.814;2022-09-21T07:39:51;4.57;;;3.30;;
49241;SDS011;35079;52.704;13.814;2022-09-21T07:42:17;4.88;;;3.10;;
49241;SDS011;35079;52.704;13.814;2022-09-21T07:44:44;2.78;;;2.58;;
49241;SDS011;35079;52.704;13.814;2022-09-21T07:47:10;4.43;;;2.80;;
49241;SDS011;35079;52.704;13.814;2022-09-21T07:49:37;4.05;;;2.90;;
49241;SDS011;35079;52.704;13.814;2022-09-21T07:52:03;3.78;;;3.00;;
49241;SDS011;35079;52.704;13.814;2022-09-21T07:54:29;4.88;;;2.80;;
49241;SDS011;35079;52.704;13.814;2022-09-21T07:56:58;4.63;;;3.05;;
49241;SDS011;35079;52.704;13.814;2022-09-21T07:59:43;3.08;;;2.67;;
49241;SDS011;35079;52.704;13.814;2022-09-21T08:02:09;3.25;;;2.75;;
49241;SDS011;35079;52.704;13.814;2022-09-21T08:04:35;4.00;;;2.85;;
49241;SDS011;35079;52.704;13.814;2022-09-21T08:07:00;4.15;;;3.33;;
49241;SDS011;35079;52.704;13.814;2022-09-21T08:09:26;6.07;;;3.55;;
49241;SDS011;35079;52.704;13.814;2022-09-21T08:11:52;4.13;;;2.97;;
49241;SDS011;35079;52.704;13.814;2022-09-21T08:14:18;5.47;;;3.00;;
49241;SDS011;35079;52.704;13.814;2022-09-21T08:16:45;2.78;;;2.25;;
49241;SDS011;35079;52.704;13.814;2022-09-21T08:19:11;8.82;;;2.58;;
49241;SDS011;35079;52.704;13.814;2022-09-21T08:21:38;2.00;;;1.90;;
49241;SDS011;35079;52.704;13.814;2022-09-21T08:24:04;2.33;;;2.00;;
49241;SDS011;35079;52.704;13.814;2022-09-21T08:26:29;5.15;;;1.83;;
49241;SDS011;35079;52.704;13.814;2022-09-21T08:28:55;2.40;;;1.55;;
49241;SDS011;35079;52.704;13.814;2022-09-21T08:31:24;3.75;;;1.85;;
49241;SDS011;35079;52.704;13.814;2022-09-21T08:33:50;1.23;;;1.13;;
49241;SDS011;35079;52.704;13.814;2022-09-21T08:36:17;1.38;;;1.27;;
49241;SDS011;35079;52.704;13.814;2022-09-21T08:38:43;1.75;;;1.40;;
49241;SDS011;35079;52.704;13.814;2022-09-21T08:41:22;1.17;;;1.08;;
49241;SDS011;35079;52.704;13.814;2022-09-21T08:43:59;1.75;;;1.38;;
49241;SDS011;35079;52.704;13.814;2022-09-21T08:46:28;2.25;;;1.40;;
49241;SDS011;35079;52.704;13.814;2022-09-21T08:49:06;2.25;;;1.80;;
49241;SDS011;35079;52.704;13.814;2022-09-21T08:51:41;1.38;;;1.27;;
49241;SDS011;35079;52.704;13.814;2022-09-21T08:57:14;1.00;;;1.00;;
49241;SDS011;35079;52.704;13.814;2022-09-21T08:59:45;1.25;;;0.90;;
49241;SDS011;35079;52.704;13.814;2022-09-21T09:05:10;2.95;;;0.90;;
49241;SDS011;35079;52.704;13.814;2022-09-21T09:07:50;2.22;;;1.25;;
49241;SDS011;35079;52.704;13.814;2022-09-21T09:21:31;2.10;;;0.75;;
49241;SDS011;35079;52.704;13.814;2022-09-21T09:24:05;1.30;;;0.77;;
49241;SDS011;35079;52.704;13.814;2022-09-21T09:26:52;0.90;;;0.70;;
49241;SDS011;35079;52.704;13.814;2022-09-21T09:29:43;1.38;;;0.90;;
49241;SDS011;35079;52.704;13.814;2022-09-21T09:32:46;1.98;;;0.60;;
49241;SDS011;35079;52.704;13.814;2022-09-21T09:37:55;0.95;;;0.73;;
49241;SDS011;35079;52.704;13.814;2022-09-21T09:46:29;1.35;;;0.68;;
49241;SDS011;35079;52.704;13.814;2022-09-21T09:51:55;0.82;;;0.75;;
49241;SDS011;35079;52.704;13.814;2022-09-21T09:54:21;0.98;;;0.63;;
49241;SDS011;35079;52.704;13.814;2022-09-21T09:56:50;4.88;;;1.02;;
49241;SDS011;35079;52.704;13.814;2022-09-21T10:02:04;1.10;;;0.80;;
49241;SDS011;35079;52.704;13.814;2022-09-21T10:04:57;1.70;;;0.88;;
49241;SDS011;35079;52.704;13.814;2022-09-21T10:07:40;1.98;;;0.60;;
49241;SDS011;35079;52.704;13.814;2022-09-21T10:10:29;1.60;;;0.80;;
49241;SDS011;35079;52.704;13.814;2022-09-21T10:15:50;1.55;;;0.70;;
49241;SDS011;35079;52.704;13.814;2022-09-21T10:18:20;0.70;;;0.70;;
49241;SDS011;35079;52.704;13.814;2022-09-21T10:20:53;0.95;;;0.70;;
49241;SDS011;35079;52.704;13.814;2022-09-21T10:23:19;0.70;;;0.70;;
49241;SDS011;35079;52.704;13.814;2022-09-21T10:25:51;1.85;;;0.80;;
49241;SDS011;35079;52.704;13.814;2022-09-21T10:28:19;0.93;;;0.80;;
49241;SDS011;35079;52.704;13.814;2022-09-21T10:30:47;0.65;;;0.65;;
49241;SDS011;35079;52.704;13.814;2022-09-21T10:33:20;3.60;;;1.73;;
49241;SDS011;35079;52.704;13.814;2022-09-21T10:35:50;3.15;;;0.70;;
49241;SDS011;35079;52.704;13.814;2022-09-21T10:38:19;1.88;;;0.70;;
49241;SDS011;35079;52.704;13.814;2022-09-21T10:40:51;0.98;;;0.70;;
49241;SDS011;35079;52.704;13.814;2022-09-21T10:43:31;0.70;;;0.70;;
49241;SDS011;35079;52.704;13.814;2022-09-21T10:46:00;1.63;;;0.60;;
49241;SDS011;35079;52.704;13.814;2022-09-21T10:48:26;0.85;;;0.70;;
49241;SDS011;35079;52.704;13.814;2022-09-21T10:50:53;0.95;;;0.60;;
49241;SDS011;35079;52.704;13.814;2022-09-21T10:53:25;2.65;;;0.60;;
49241;SDS011;35079;52.704;13.814;2022-09-21T10:55:59;2.47;;;0.93;;
49241;SDS011;35079;52.704;13.814;2022-09-21T10:58:32;3.60;;;2.10;;
49241;SDS011;35079;52.704;13.814;2022-09-21T11:01:09;0.88;;;0.88;;
49241;SDS011;35079;52.704;13.814;2022-09-21T11:06:32;1.45;;;1.27;;
49241;SDS011;35079;52.704;13.814;2022-09-21T11:09:04;0.80;;;0.80;;
49241;SDS011;35079;52.704;13.814;2022-09-21T11:17:06;8.50;;;5.18;;
49241;SDS011;35079;52.704;13.814;2022-09-21T11:19:39;5.15;;;1.90;;
49241;SDS011;35079;52.704;13.814;2022-09-21T11:22:21;3.78;;;1.20;;
49241;SDS011;35079;52.704;13.814;2022-09-21T11:28:00;1.63;;;1.00;;
49241;SDS011;35079;52.704;13.814;2022-09-21T11:30:54;1.75;;;0.70;;
49241;SDS011;35079;52.704;13.814;2022-09-21T11:34:35;1.30;;;0.53;;
49241;SDS011;35079;52.704;13.814;2022-09-21T11:42:33;1.05;;;0.52;;
49241;SDS011;35079;52.704;13.814;2022-09-21T11:48:48;0.50;;;0.50;;
49241;SDS011;35079;52.704;13.814;2022-09-21T12:00:22;0.70;;;0.60;;
49241;SDS011;35079;52.704;13.814;2022-09-21T12:11:23;0.40;;;0.40;;
49241;SDS011;35079;52.704;13.814;2022-09-21T12:22:17;0.57;;;0.40;;
49241;SDS011;35079;52.704;13.814;2022-09-21T12:24:57;0.40;;;0.40;;
49241;SDS011;35079;52.704;13.814;2022-09-21T12:30:06;3.60;;;0.60;;
49241;SDS011;35079;52.704;13.814;2022-09-21T12:35:16;0.40;;;0.40;;
49241;SDS011;35079;52.704;13.814;2022-09-21T12:43:27;1.23;;;0.85;;
49241;SDS011;35079;52.704;13.814;2022-09-21T12:46:23;0.95;;;0.60;;
49241;SDS011;35079;52.704;13.814;2022-09-21T12:48:46;1.73;;;1.13;;
49241;SDS011;35079;52.704;13.814;2022-09-21T12:53:59;0.73;;;0.73;;
49241;SDS011;35079;52.704;13.814;2022-09-21T12:56:34;0.80;;;0.60;;
49241;SDS011;35079;52.704;13.814;2022-09-21T13:04:09;0.77;;;0.77;;
49241;SDS011;35079;52.704;13.814;2022-09-21T13:09:45;1.95;;;0.60;;
49241;SDS011;35079;52.704;13.814;2022-09-21T13:14:46;0.57;;;0.50;;
49241;SDS011;35079;52.704;13.814;2022-09-21T13:17:21;0.40;;;0.40;;
49241;SDS011;35079;52.704;13.814;2022-09-21T13:20:22;0.90;;;0.45;;
49241;SDS011;35079;52.704;13.814;2022-09-21T13:22:44;0.98;;;0.60;;
49241;SDS011;35079;52.704;13.814;2022-09-21T13:25:22;0.93;;;0.50;;
49241;SDS011;35079;52.704;13.814;2022-09-21T13:28:04;2.13;;;0.60;;
49241;SDS011;35079;52.704;13.814;2022-09-21T13:36:43;1.80;;;0.50;;
49241;SDS011;35079;52.704;13.814;2022-09-21T13:39:16;1.40;;;0.47;;
49241;SDS011;35079;52.704;13.814;2022-09-21T13:41:43;0.85;;;0.60;;
49241;SDS011;35079;52.704;13.814;2022-09-21T13:44:20;0.45;;;0.45;;
49241;SDS011;35079;52.704;13.814;2022-09-21T13:47:07;0.50;;;0.50;;
49241;SDS011;35079;52.704;13.814;2022-09-21T13:49:45;0.73;;;0.45;;
49241;SDS011;35079;52.704;13.814;2022-09-21T13:57:35;2.97;;;0.70;;
49241;SDS011;35079;52.704;13.814;2022-09-21T14:02:37;1.55;;;0.88;;
49241;SDS011;35079;52.704;13.814;2022-09-21T14:05:15;2.28;;;0.40;;
49241;SDS011;35079;52.704;13.814;2022-09-21T14:07:43;2.42;;;0.55;;
49241;SDS011;35079;52.704;13.814;2022-09-21T14:10:16;1.08;;;0.65;;
49241;SDS011;35079;52.704;13.814;2022-09-21T14:12:44;0.65;;;0.60;;
49241;SDS011;35079;52.704;13.814;2022-09-21T14:17:43;1.20;;;1.10;;
49241;SDS011;35079;52.704;13.814;2022-09-21T14:20:29;2.05;;;0.70;;
49241;SDS011;35079;52.704;13.814;2022-09-21T14:28:15;0.40;;;0.40;;
49241;SDS011;35079;52.704;13.814;2022-09-21T14:30:47;0.85;;;0.52;;
49241;SDS011;35079;52.704;13.814;2022-09-21T14:33:19;1.90;;;0.57;;
49241;SDS011;35079;52.704;13.814;2022-09-21T14:35:51;1.55;;;0.70;;
49241;SDS011;35079;52.704;13.814;2022-09-21T14:40:48;1.17;;;0.77;;
49241;SDS011;35079;52.704;13.814;2022-09-21T14:43:32;0.90;;;0.70;;
49241;SDS011;35079;52.704;13.814;2022-09-21T14:55:41;1.02;;;0.52;;
49241;SDS011;35079;52.704;13.814;2022-09-21T15:00:42;1.73;;;0.68;;
49241;SDS011;35079;52.704;13.814;2022-09-21T15:12:21;0.60;;;0.60;;
49241;SDS011;35079;52.704;13.814;2022-09-21T15:15:01;0.60;;;0.60;;
49241;SDS011;35079;52.704;13.814;2022-09-21T15:17:49;0.60;;;0.60;;
49241;SDS011;35079;52.704;13.814;2022-09-21T15:20:23;1.05;;;0.70;;
49241;SDS011;35079;52.704;13.814;2022-09-21T15:22:52;1.13;;;0.60;;
49241;SDS011;35079;52.704;13.814;2022-09-21T15:25:19;0.80;;;0.60;;
49241;SDS011;35079;52.704;13.814;2022-09-21T15:27:46;0.60;;;0.52;;
49241;SDS011;35079;52.704;13.814;2022-09-21T15:30:25;0.75;;;0.57;;
49241;SDS011;35079;52.704;13.814;2022-09-21T15:32:57;1.73;;;0.60;;
49241;SDS011;35079;52.704;13.814;2022-09-21T15:35:29;0.50;;;0.50;;
49241;SDS011;35079;52.704;13.814;2022-09-21T15:37:59;0.57;;;0.57;;
49241;SDS011;35079;52.704;13.814;2022-09-21T15:40:26;0.68;;;0.65;;
49241;SDS011;35079;52.704;13.814;2022-09-21T15:45:35;1.95;;;0.82;;
49241;SDS011;35079;52.704;13.814;2022-09-21T15:48:03;0.82;;;0.50;;
49241;SDS011;35079;52.704;13.814;2022-09-21T15:50:37;0.45;;;0.45;;
49241;SDS011;35079;52.704;13.814;2022-09-21T15:53:05;1.50;;;0.57;;
49241;SDS011;35079;52.704;13.814;2022-09-21T15:55:39;0.80;;;0.50;;
49241;SDS011;35079;52.704;13.814;2022-09-21T15:58:17;0.47;;;0.47;;
49241;SDS011;35079;52.704;13.814;2022-09-21T16:03:35;0.82;;;0.70;;
49241;SDS011;35079;52.704;13.814;2022-09-21T16:06:16;0.77;;;0.60;;
49241;SDS011;35079;52.704;13.814;2022-09-21T16:08:51;0.50;;;0.50;;
49241;SDS011;35079;52.704;13.814;2022-09-21T16:13:57;0.80;;;0.80;;
49241;SDS011;35079;52.704;13.814;2022-09-21T16:22:22;1.33;;;0.70;;
49241;SDS011;35079;52.704;13.814;2022-09-21T16:24:59;1.23;;;0.70;;
49241;SDS011;35079;52.704;13.814;2022-09-21T16:27:26;2.58;;;0.80;;
49241;SDS011;35079;52.704;13.814;2022-09-21T16:29:54;2.40;;;0.80;;
49241;SDS011;35079;52.704;13.814;2022-09-21T16:32:28;1.45;;;0.60;;
49241;SDS011;35079;52.704;13.814;2022-09-21T16:37:49;0.50;;;0.50;;
49241;SDS011;35079;52.704;13.814;2022-09-21T16:40:15;0.60;;;0.60;;
49241;SDS011;35079;52.704;13.814;2022-09-21T16:42:41;0.75;;;0.60;;
49241;SDS011;35079;52.704;13.814;2022-09-21T16:45:25;1.45;;;0.65;;
49241;SDS011;35079;52.704;13.814;2022-09-21T16:47:55;0.40;;;0.40;;
49241;SDS011;35079;52.704;13.814;2022-09-21T16:50:23;0.93;;;0.68;;
49241;SDS011;35079;52.704;13.814;2022-09-21T16:52:49;0.50;;;0.50;;
49241;SDS011;35079;52.704;13.814;2022-09-21T16:55:17;1.23;;;0.50;;
49241;SDS011;35079;52.704;13.814;2022-09-21T16:57:45;0.73;;;0.70;;
49241;SDS011;35079;52.704;13.814;2022-09-21T17:00:13;0.82;;;0.47;;
49241;SDS011;35079;52.704;13.814;2022-09-21T17:02:44;1.00;;;0.52;;
49241;SDS011;35079;52.704;13.814;2022-09-21T17:05:09;0.88;;;0.73;;
49241;SDS011;35079;52.704;13.814;2022-09-21T17:07:52;1.33;;;0.57;;
49241;SDS011;35079;52.704;13.814;2022-09-21T17:10:19;0.70;;;0.60;;
49241;SDS011;35079;52.704;13.814;2022-09-21T17:12:52;0.50;;;0.50;;
49241;SDS011;35079;52.704;13.814;2022-09-21T17:15:19;4.55;;;0.70;;
49241;SDS011;35079;52.704;13.814;2022-09-21T17:17:46;0.50;;;0.50;;
49241;SDS011;35079;52.704;13.814;2022-09-21T17:20:34;4.00;;;0.60;;
49241;SDS011;35079;52.704;13.814;2022-09-21T17:23:03;1.17;;;0.70;;
49241;SDS011;35079;52.704;13.814;2022-09-21T17:25:29;1.42;;;0.75;;
49241;SDS011;35079;52.704;13.814;2022-09-21T17:27:57;0.75;;;0.75;;
49241;SDS011;35079;52.704;13.814;2022-09-21T17:30:23;0.80;;;0.80;;
49241;SDS011;35079;52.704;13.814;2022-09-21T17:32:50;1.15;;;1.00;;
49241;SDS011;35079;52.704;13.814;2022-09-21T17:35:28;0.70;;;0.70;;
49241;SDS011;35079;52.704;13.814;2022-09-21T17:37:59;2.20;;;0.90;;
49241;SDS011;35079;52.704;13.814;2022-09-21T17:40:25;0.90;;;0.90;;
49241;SDS011;35079;52.704;13.814;2022-09-21T17:42:52;3.13;;;0.80;;
49241;SDS011;35079;52.704;13.814;2022-09-21T17:45:41;1.25;;;0.70;;
49241;SDS011;35079;52.704;13.814;2022-09-21T17:48:18;3.08;;;0.70;;
49241;SDS011;35079;52.704;13.814;2022-09-21T17:50:45;1.75;;;0.70;;
49241;SDS011;35079;52.704;13.814;2022-09-21T17:53:13;0.70;;;0.70;;
49241;SDS011;35079;52.704;13.814;2022-09-21T17:55:58;1.05;;;0.88;;
49241;SDS011;35079;52.704;13.814;2022-09-21T17:59:01;4.22;;;0.80;;
49241;SDS011;35079;52.704;13.814;2022-09-21T18:01:30;4.75;;;1.00;;
49241;SDS011;35079;52.704;13.814;2022-09-21T18:03:56;1.00;;;0.80;;
49241;SDS011;35079;52.704;13.814;2022-09-21T18:06:22;1.35;;;0.60;;
49241;SDS011;35079;52.704;13.814;2022-09-21T18:08:49;2.28;;;0.80;;
49241;SDS011;35079;52.704;13.814;2022-09-21T18:19:45;0.73;;;0.73;;
49241;SDS011;35079;52.704;13.814;2022-09-21T18:25:12;3.17;;;0.80;;
49241;SDS011;35079;52.704;13.814;2022-09-21T18:27:40;1.98;;;0.73;;
49241;SDS011;35079;52.704;13.814;2022-09-21T18:30:10;1.85;;;0.70;;